Hundvaag 1 weather for Jul 2008
Month no. 253
Obs.
Da.
Temp. Dew Point Precip. Wind
Speed
Wind gusts Cloud cover Press. Humidity Wind dir. Sunny OPT
01.07.2008 12,3   0,0 0,0   1 1016,6 85,0 202,5 1 67,5 %
02.07.2008 14,5   0,0 0,0   10 1014,6 74,0 157,5 1 92,5 %
03.07.2008 17,8   0,0 0,0   10 1013,5 61,0 45,0 1 97,5 %
04.07.2008 21,9   0,0 1,0   10 1014,2 42,0 112,5 1 100,0 %
05.07.2008 17,5   0,0 1,0   10 1014,9 68,0 22,5 1 97,5 %
06.07.2008 15,4   0,0 0,0   3 1005,8 96,0 157,5 1 77,5 %
07.07.2008 13,9   1,1 1,0   1 997,3 78,0 45,0   70,0 %
08.07.2008 13,3   8,8 1,0   0 1002,4 80,0 45,0   62,5 %
09.07.2008 15,7   0,0 1,0   10 1005,8 79,0 45,0 1 95,0 %
10.07.2008 14,3   0,0 0,0   10 1006,1 97,0 112,5 1 92,5 %
11.07.2008 14,2   0,5 0,0   3 1000,0 85,0 157,5 1 75,0 %
12.07.2008 13,5   10,8 0,0   2 998,6 91,0 157,5   65,0 %
13.07.2008 13,1   17,5 0,0   4 1004,1 98,0 157,5 1 65,0 %
14.07.2008 12,2   0,3 0,0   0 1012,2 84,0 270,0   65,0 %
15.07.2008 15,2   0,5 2,0   0 1010,8 93,0 112,5 1 70,0 %
16.07.2008 11,9   9,6 1,0   1 1007,8 92,0 90,0 1 60,0 %
17.07.2008 11,7   11,4 1,0   2 1006,4 92,0 247,5   62,5 %
18.07.2008 10,9   0,0 0,0   3 1004,7 89,0 292,5 1 72,5 %
19.07.2008 13,6   0,0 1,0   0 1000,3 76,0 90,0   67,5 %
20.07.2008 13,1   7,2 1,0   6 997,6 90,0 180,0 1 77,5 %
21.07.2008 13,0   10,7 0,0   2 1008,5 98,0 45,0 1 65,0 %
22.07.2008 13,6   0,0 2,0   2 1015,6 87,0 270,0 1 72,5 %
23.07.2008 14,7   0,0 1,0   10 1022,7 80,0 45,0 1 92,5 %
24.07.2008 16,8   0,0 0,0   10 1025,4 95,0 337,5 1 95,0 %
25.07.2008 17,8   0,0 0,0   10 1024,7 88,0 45,0 1 97,5 %
26.07.2008 20,1   0,0 0,0   7 1021,0 73,0 0,0 1 92,5 %
27.07.2008 19,8   0,0 0,0   10 1022,7 66,0 157,5 1 97,5 %
28.07.2008 19,7   0,0 1,0   10 1022,0 69,0 45,0 1 97,5 %
29.07.2008 20,4   0,0 0,0   7 1020,0 73,0 45,0 1 92,5 %
30.07.2008 22,1   0,0 0,0   8 1018,6 61,0 157,5 1 95,0 %
31.07.2008 17,1   11,0 0,0   4 1022,7 97,0 180,0 1 72,5 %
Avrg/Sum 15,5   89,4 0,5   5,4 1011,5 81,8 129,9 25 80,7 %